sensor_id;sensor_type;location;lat;lon;timestamp;P1;durP1;ratioP1;P2;durP2;ratioP2
50757;SDS011;36732;47.980;11.652;2023-04-25T00:01:17;1.20;;;1.10;;
50757;SDS011;36732;47.980;11.652;2023-04-25T00:03:43;1.00;;;0.80;;
50757;SDS011;36732;47.980;11.652;2023-04-25T00:06:10;1.27;;;0.93;;
50757;SDS011;36732;47.980;11.652;2023-04-25T00:08:37;1.10;;;0.93;;
50757;SDS011;36732;47.980;11.652;2023-04-25T00:11:02;2.75;;;1.00;;
50757;SDS011;36732;47.980;11.652;2023-04-25T00:13:28;1.58;;;1.25;;
50757;SDS011;36732;47.980;11.652;2023-04-25T00:15:54;1.95;;;1.00;;
50757;SDS011;36732;47.980;11.652;2023-04-25T00:18:21;2.03;;;1.23;;
50757;SDS011;36732;47.980;11.652;2023-04-25T00:20:47;0.88;;;0.85;;
50757;SDS011;36732;47.980;11.652;2023-04-25T00:23:14;0.80;;;0.80;;
50757;SDS011;36732;47.980;11.652;2023-04-25T00:25:42;1.35;;;1.02;;
50757;SDS011;36732;47.980;11.652;2023-04-25T00:28:09;0.88;;;0.80;;
50757;SDS011;36732;47.980;11.652;2023-04-25T00:30:36;2.17;;;1.00;;
50757;SDS011;36732;47.980;11.652;2023-04-25T00:33:03;1.67;;;0.98;;
50757;SDS011;36732;47.980;11.652;2023-04-25T00:35:29;0.93;;;0.90;;
50757;SDS011;36732;47.980;11.652;2023-04-25T00:37:55;1.23;;;0.60;;
50757;SDS011;36732;47.980;11.652;2023-04-25T00:40:21;1.00;;;0.90;;
50757;SDS011;36732;47.980;11.652;2023-04-25T00:42:47;2.85;;;0.95;;
50757;SDS011;36732;47.980;11.652;2023-04-25T00:45:13;0.98;;;0.70;;
50757;SDS011;36732;47.980;11.652;2023-04-25T00:47:40;2.53;;;1.00;;
50757;SDS011;36732;47.980;11.652;2023-04-25T00:50:07;0.98;;;0.82;;
50757;SDS011;36732;47.980;11.652;2023-04-25T00:52:33;1.20;;;1.00;;
50757;SDS011;36732;47.980;11.652;2023-04-25T00:54:59;2.58;;;1.10;;
50757;SDS011;36732;47.980;11.652;2023-04-25T00:57:26;1.67;;;1.02;;
50757;SDS011;36732;47.980;11.652;2023-04-25T00:59:52;1.42;;;1.00;;
50757;SDS011;36732;47.980;11.652;2023-04-25T01:02:19;3.88;;;1.17;;
50757;SDS011;36732;47.980;11.652;2023-04-25T01:04:45;1.65;;;1.20;;
50757;SDS011;36732;47.980;11.652;2023-04-25T01:07:13;1.23;;;1.00;;
50757;SDS011;36732;47.980;11.652;2023-04-25T01:09:39;1.95;;;1.10;;
50757;SDS011;36732;47.980;11.652;2023-04-25T01:12:05;1.63;;;1.00;;
50757;SDS011;36732;47.980;11.652;2023-04-25T01:14:31;1.92;;;0.88;;
50757;SDS011;36732;47.980;11.652;2023-04-25T01:16:57;1.08;;;0.95;;
50757;SDS011;36732;47.980;11.652;2023-04-25T01:19:23;2.75;;;1.10;;
50757;SDS011;36732;47.980;11.652;2023-04-25T01:21:49;2.10;;;1.30;;
50757;SDS011;36732;47.980;11.652;2023-04-25T01:24:16;1.77;;;1.10;;
50757;SDS011;36732;47.980;11.652;2023-04-25T01:30:07;1.45;;;0.90;;
50757;SDS011;36732;47.980;11.652;2023-04-25T01:32:34;1.08;;;0.90;;
50757;SDS011;36732;47.980;11.652;2023-04-25T01:35:06;1.30;;;1.05;;
50757;SDS011;36732;47.980;11.652;2023-04-25T01:37:41;1.08;;;0.98;;
50757;SDS011;36732;47.980;11.652;2023-04-25T01:42:36;2.60;;;1.38;;
50757;SDS011;36732;47.980;11.652;2023-04-25T01:45:05;1.58;;;0.90;;
50757;SDS011;36732;47.980;11.652;2023-04-25T01:47:32;1.88;;;1.10;;
50757;SDS011;36732;47.980;11.652;2023-04-25T01:50:02;1.67;;;0.90;;
50757;SDS011;36732;47.980;11.652;2023-04-25T01:52:30;1.33;;;1.00;;
50757;SDS011;36732;47.980;11.652;2023-04-25T01:54:56;0.90;;;0.90;;
50757;SDS011;36732;47.980;11.652;2023-04-25T01:57:27;3.25;;;1.10;;
50757;SDS011;36732;47.980;11.652;2023-04-25T02:00:01;1.55;;;1.45;;
50757;SDS011;36732;47.980;11.652;2023-04-25T02:02:29;1.20;;;1.10;;
50757;SDS011;36732;47.980;11.652;2023-04-25T02:04:55;1.10;;;1.00;;
50757;SDS011;36732;47.980;11.652;2023-04-25T02:07:21;2.88;;;1.20;;
50757;SDS011;36732;47.980;11.652;2023-04-25T02:09:47;1.30;;;1.10;;
50757;SDS011;36732;47.980;11.652;2023-04-25T02:12:13;1.20;;;1.10;;
50757;SDS011;36732;47.980;11.652;2023-04-25T02:14:38;3.55;;;1.10;;
50757;SDS011;36732;47.980;11.652;2023-04-25T02:17:04;1.40;;;1.17;;
50757;SDS011;36732;47.980;11.652;2023-04-25T02:19:30;2.28;;;1.30;;
50757;SDS011;36732;47.980;11.652;2023-04-25T02:21:56;3.53;;;1.23;;
50757;SDS011;36732;47.980;11.652;2023-04-25T02:24:23;1.10;;;1.00;;
50757;SDS011;36732;47.980;11.652;2023-04-25T02:26:48;1.27;;;1.17;;
50757;SDS011;36732;47.980;11.652;2023-04-25T02:29:14;1.08;;;0.98;;
50757;SDS011;36732;47.980;11.652;2023-04-25T02:31:41;1.10;;;0.98;;
50757;SDS011;36732;47.980;11.652;2023-04-25T02:34:07;1.00;;;0.95;;
50757;SDS011;36732;47.980;11.652;2023-04-25T02:36:33;1.30;;;1.13;;
50757;SDS011;36732;47.980;11.652;2023-04-25T02:39:00;1.90;;;1.13;;
50757;SDS011;36732;47.980;11.652;2023-04-25T02:41:26;1.40;;;1.10;;
50757;SDS011;36732;47.980;11.652;2023-04-25T02:43:52;1.13;;;1.00;;
50757;SDS011;36732;47.980;11.652;2023-04-25T02:46:18;2.53;;;1.23;;
50757;SDS011;36732;47.980;11.652;2023-04-25T02:48:43;1.95;;;1.23;;
50757;SDS011;36732;47.980;11.652;2023-04-25T02:51:09;3.17;;;1.10;;
50757;SDS011;36732;47.980;11.652;2023-04-25T02:53:35;2.17;;;0.93;;
50757;SDS011;36732;47.980;11.652;2023-04-25T02:56:01;1.85;;;1.40;;
50757;SDS011;36732;47.980;11.652;2023-04-25T02:58:27;0.95;;;0.90;;
50757;SDS011;36732;47.980;11.652;2023-04-25T03:00:53;1.45;;;1.30;;
50757;SDS011;36732;47.980;11.652;2023-04-25T03:03:19;3.05;;;1.30;;
50757;SDS011;36732;47.980;11.652;2023-04-25T03:05:47;2.42;;;0.98;;
50757;SDS011;36732;47.980;11.652;2023-04-25T03:08:16;2.03;;;1.33;;
50757;SDS011;36732;47.980;11.652;2023-04-25T03:10:43;1.15;;;1.05;;
50757;SDS011;36732;47.980;11.652;2023-04-25T03:13:09;1.73;;;1.15;;
50757;SDS011;36732;47.980;11.652;2023-04-25T03:15:35;1.88;;;1.00;;
50757;SDS011;36732;47.980;11.652;2023-04-25T03:18:02;3.15;;;1.27;;
50757;SDS011;36732;47.980;11.652;2023-04-25T03:20:28;1.80;;;1.20;;
50757;SDS011;36732;47.980;11.652;2023-04-25T03:22:54;3.20;;;1.15;;
50757;SDS011;36732;47.980;11.652;2023-04-25T03:25:20;1.85;;;1.10;;
50757;SDS011;36732;47.980;11.652;2023-04-25T03:27:46;1.88;;;1.10;;
50757;SDS011;36732;47.980;11.652;2023-04-25T03:30:12;2.63;;;1.10;;
50757;SDS011;36732;47.980;11.652;2023-04-25T03:32:37;2.97;;;1.15;;
50757;SDS011;36732;47.980;11.652;2023-04-25T03:35:03;1.40;;;1.00;;
50757;SDS011;36732;47.980;11.652;2023-04-25T03:37:30;2.03;;;1.08;;
50757;SDS011;36732;47.980;11.652;2023-04-25T03:39:56;2.33;;;1.05;;
50757;SDS011;36732;47.980;11.652;2023-04-25T03:42:21;1.02;;;0.93;;
50757;SDS011;36732;47.980;11.652;2023-04-25T03:44:48;1.45;;;1.10;;
50757;SDS011;36732;47.980;11.652;2023-04-25T03:47:14;3.05;;;1.08;;
50757;SDS011;36732;47.980;11.652;2023-04-25T03:49:41;2.17;;;0.80;;
50757;SDS011;36732;47.980;11.652;2023-04-25T03:52:07;2.33;;;0.85;;
50757;SDS011;36732;47.980;11.652;2023-04-25T03:54:33;3.33;;;1.05;;
50757;SDS011;36732;47.980;11.652;2023-04-25T03:56:58;4.65;;;1.42;;
50757;SDS011;36732;47.980;11.652;2023-04-25T03:59:24;2.55;;;1.10;;
50757;SDS011;36732;47.980;11.652;2023-04-25T04:01:51;3.90;;;1.00;;
50757;SDS011;36732;47.980;11.652;2023-04-25T04:04:17;1.30;;;0.77;;
50757;SDS011;36732;47.980;11.652;2023-04-25T04:06:43;0.63;;;0.63;;
50757;SDS011;36732;47.980;11.652;2023-04-25T04:09:09;1.08;;;0.85;;
50757;SDS011;36732;47.980;11.652;2023-04-25T04:11:36;1.42;;;0.85;;
50757;SDS011;36732;47.980;11.652;2023-04-25T04:14:04;1.77;;;0.73;;
50757;SDS011;36732;47.980;11.652;2023-04-25T04:16:31;1.73;;;0.77;;
50757;SDS011;36732;47.980;11.652;2023-04-25T04:18:57;1.38;;;0.65;;
50757;SDS011;36732;47.980;11.652;2023-04-25T04:21:23;1.52;;;0.80;;
50757;SDS011;36732;47.980;11.652;2023-04-25T04:23:48;1.73;;;1.00;;
50757;SDS011;36732;47.980;11.652;2023-04-25T04:26:14;2.03;;;0.85;;
50757;SDS011;36732;47.980;11.652;2023-04-25T04:28:43;1.92;;;1.00;;
50757;SDS011;36732;47.980;11.652;2023-04-25T04:31:09;0.75;;;0.70;;
50757;SDS011;36732;47.980;11.652;2023-04-25T04:33:35;0.90;;;0.80;;
50757;SDS011;36732;47.980;11.652;2023-04-25T04:36:02;2.15;;;1.00;;
50757;SDS011;36732;47.980;11.652;2023-04-25T04:38:28;2.00;;;1.33;;
50757;SDS011;36732;47.980;11.652;2023-04-25T04:40:55;0.80;;;0.80;;
50757;SDS011;36732;47.980;11.652;2023-04-25T04:43:21;1.10;;;1.00;;
50757;SDS011;36732;47.980;11.652;2023-04-25T04:45:47;2.92;;;0.90;;
50757;SDS011;36732;47.980;11.652;2023-04-25T04:48:14;1.10;;;1.00;;
50757;SDS011;36732;47.980;11.652;2023-04-25T04:50:42;2.15;;;1.33;;
50757;SDS011;36732;47.980;11.652;2023-04-25T04:53:10;2.05;;;1.27;;
50757;SDS011;36732;47.980;11.652;2023-04-25T04:55:36;2.35;;;1.40;;
50757;SDS011;36732;47.980;11.652;2023-04-25T04:58:02;2.90;;;1.23;;
50757;SDS011;36732;47.980;11.652;2023-04-25T05:00:28;1.42;;;0.90;;
50757;SDS011;36732;47.980;11.652;2023-04-25T05:02:54;2.90;;;1.08;;
50757;SDS011;36732;47.980;11.652;2023-04-25T05:05:23;1.30;;;0.90;;
50757;SDS011;36732;47.980;11.652;2023-04-25T05:07:48;2.22;;;1.10;;
50757;SDS011;36732;47.980;11.652;2023-04-25T05:10:14;2.03;;;1.23;;
50757;SDS011;36732;47.980;11.652;2023-04-25T05:12:40;2.40;;;1.00;;
50757;SDS011;36732;47.980;11.652;2023-04-25T05:15:06;2.45;;;0.90;;
50757;SDS011;36732;47.980;11.652;2023-04-25T05:17:32;1.65;;;0.93;;
50757;SDS011;36732;47.980;11.652;2023-04-25T05:19:57;1.55;;;0.95;;
50757;SDS011;36732;47.980;11.652;2023-04-25T05:22:23;1.27;;;1.10;;
50757;SDS011;36732;47.980;11.652;2023-04-25T05:24:49;1.90;;;1.10;;
50757;SDS011;36732;47.980;11.652;2023-04-25T05:27:16;4.43;;;1.00;;
50757;SDS011;36732;47.980;11.652;2023-04-25T05:29:43;1.10;;;0.80;;
50757;SDS011;36732;47.980;11.652;2023-04-25T05:32:09;1.38;;;0.90;;
50757;SDS011;36732;47.980;11.652;2023-04-25T05:34:35;3.58;;;2.80;;
50757;SDS011;36732;47.980;11.652;2023-04-25T05:37:01;4.93;;;3.60;;
50757;SDS011;36732;47.980;11.652;2023-04-25T05:39:27;2.92;;;2.20;;
50757;SDS011;36732;47.980;11.652;2023-04-25T05:41:53;2.58;;;1.60;;
50757;SDS011;36732;47.980;11.652;2023-04-25T05:44:19;1.88;;;1.40;;
50757;SDS011;36732;47.980;11.652;2023-04-25T05:46:45;3.60;;;1.58;;
50757;SDS011;36732;47.980;11.652;2023-04-25T05:49:11;2.10;;;1.02;;
50757;SDS011;36732;47.980;11.652;2023-04-25T05:51:37;1.92;;;1.00;;
50757;SDS011;36732;47.980;11.652;2023-04-25T05:54:03;3.22;;;1.15;;
50757;SDS011;36732;47.980;11.652;2023-04-25T05:56:28;1.33;;;1.10;;
50757;SDS011;36732;47.980;11.652;2023-04-25T05:58:54;1.00;;;0.90;;
50757;SDS011;36732;47.980;11.652;2023-04-25T06:01:21;2.25;;;0.98;;
50757;SDS011;36732;47.980;11.652;2023-04-25T06:03:48;1.80;;;1.13;;
50757;SDS011;36732;47.980;11.652;2023-04-25T06:06:13;2.58;;;1.20;;
50757;SDS011;36732;47.980;11.652;2023-04-25T06:08:40;1.63;;;0.98;;
50757;SDS011;36732;47.980;11.652;2023-04-25T06:11:06;2.97;;;1.38;;
50757;SDS011;36732;47.980;11.652;2023-04-25T06:13:31;1.83;;;1.05;;
50757;SDS011;36732;47.980;11.652;2023-04-25T06:15:57;1.35;;;1.00;;
50757;SDS011;36732;47.980;11.652;2023-04-25T06:18:23;2.10;;;1.30;;
50757;SDS011;36732;47.980;11.652;2023-04-25T06:20:49;2.45;;;1.20;;
50757;SDS011;36732;47.980;11.652;2023-04-25T06:23:15;1.88;;;1.25;;
50757;SDS011;36732;47.980;11.652;2023-04-25T06:25:40;1.25;;;0.88;;
50757;SDS011;36732;47.980;11.652;2023-04-25T06:28:06;1.63;;;1.13;;
50757;SDS011;36732;47.980;11.652;2023-04-25T06:30:32;2.65;;;1.30;;
50757;SDS011;36732;47.980;11.652;2023-04-25T06:32:58;2.03;;;0.85;;
50757;SDS011;36732;47.980;11.652;2023-04-25T06:35:23;2.45;;;1.15;;
50757;SDS011;36732;47.980;11.652;2023-04-25T06:37:49;1.20;;;0.85;;
50757;SDS011;36732;47.980;11.652;2023-04-25T06:40:15;2.00;;;1.35;;
50757;SDS011;36732;47.980;11.652;2023-04-25T06:42:42;2.53;;;1.45;;
50757;SDS011;36732;47.980;11.652;2023-04-25T06:45:08;1.60;;;1.20;;
50757;SDS011;36732;47.980;11.652;2023-04-25T06:47:34;4.25;;;1.55;;
50757;SDS011;36732;47.980;11.652;2023-04-25T06:50:00;2.38;;;1.23;;
50757;SDS011;36732;47.980;11.652;2023-04-25T06:52:25;2.75;;;1.27;;
50757;SDS011;36732;47.980;11.652;2023-04-25T06:54:51;2.00;;;1.30;;
50757;SDS011;36732;47.980;11.652;2023-04-25T06:57:17;3.50;;;1.55;;
50757;SDS011;36732;47.980;11.652;2023-04-25T06:59:42;2.90;;;1.45;;
50757;SDS011;36732;47.980;11.652;2023-04-25T07:02:08;2.50;;;1.30;;
50757;SDS011;36732;47.980;11.652;2023-04-25T07:04:34;1.73;;;1.00;;
50757;SDS011;36732;47.980;11.652;2023-04-25T07:07:00;6.85;;;1.85;;
50757;SDS011;36732;47.980;11.652;2023-04-25T07:09:27;3.47;;;1.55;;
50757;SDS011;36732;47.980;11.652;2023-04-25T07:11:53;2.85;;;1.50;;
50757;SDS011;36732;47.980;11.652;2023-04-25T07:14:19;2.78;;;1.58;;
50757;SDS011;36732;47.980;11.652;2023-04-25T07:16:45;2.47;;;1.20;;
50757;SDS011;36732;47.980;11.652;2023-04-25T07:19:11;3.35;;;1.42;;
50757;SDS011;36732;47.980;11.652;2023-04-25T07:21:36;1.40;;;1.30;;
50757;SDS011;36732;47.980;11.652;2023-04-25T07:24:02;2.35;;;1.58;;
50757;SDS011;36732;47.980;11.652;2023-04-25T07:26:28;3.53;;;1.30;;
50757;SDS011;36732;47.980;11.652;2023-04-25T07:28:54;2.75;;;1.55;;
50757;SDS011;36732;47.980;11.652;2023-04-25T07:31:20;1.58;;;1.27;;
50757;SDS011;36732;47.980;11.652;2023-04-25T07:33:46;2.03;;;1.50;;
50757;SDS011;36732;47.980;11.652;2023-04-25T07:36:12;2.58;;;1.65;;
50757;SDS011;36732;47.980;11.652;2023-04-25T07:38:40;4.47;;;1.40;;
50757;SDS011;36732;47.980;11.652;2023-04-25T07:41:05;2.33;;;1.48;;
50757;SDS011;36732;47.980;11.652;2023-04-25T07:43:31;3.15;;;1.50;;
50757;SDS011;36732;47.980;11.652;2023-04-25T07:45:57;3.28;;;1.40;;
50757;SDS011;36732;47.980;11.652;2023-04-25T07:48:23;2.20;;;1.55;;
50757;SDS011;36732;47.980;11.652;2023-04-25T07:50:49;2.50;;;1.27;;
50757;SDS011;36732;47.980;11.652;2023-04-25T07:53:15;1.95;;;1.38;;
50757;SDS011;36732;47.980;11.652;2023-04-25T07:55:42;1.20;;;1.08;;
50757;SDS011;36732;47.980;11.652;2023-04-25T07:58:08;7.40;;;2.10;;
50757;SDS011;36732;47.980;11.652;2023-04-25T08:00:35;2.95;;;1.63;;
50757;SDS011;36732;47.980;11.652;2023-04-25T08:03:01;1.83;;;1.40;;
50757;SDS011;36732;47.980;11.652;2023-04-25T08:05:27;1.48;;;1.10;;
50757;SDS011;36732;47.980;11.652;2023-04-25T08:07:53;2.15;;;1.60;;
50757;SDS011;36732;47.980;11.652;2023-04-25T08:10:20;1.63;;;1.13;;
50757;SDS011;36732;47.980;11.652;2023-04-25T08:12:47;1.23;;;1.10;;
50757;SDS011;36732;47.980;11.652;2023-04-25T08:15:14;2.78;;;1.45;;
50757;SDS011;36732;47.980;11.652;2023-04-25T08:17:40;3.10;;;1.40;;
50757;SDS011;36732;47.980;11.652;2023-04-25T08:20:06;2.45;;;1.13;;
50757;SDS011;36732;47.980;11.652;2023-04-25T08:22:32;4.15;;;1.55;;
50757;SDS011;36732;47.980;11.652;2023-04-25T08:24:58;1.88;;;1.10;;
50757;SDS011;36732;47.980;11.652;2023-04-25T08:27:24;2.65;;;1.48;;
50757;SDS011;36732;47.980;11.652;2023-04-25T08:29:50;1.67;;;1.10;;
50757;SDS011;36732;47.980;11.652;2023-04-25T08:32:16;1.35;;;1.10;;
50757;SDS011;36732;47.980;11.652;2023-04-25T08:34:42;2.72;;;1.40;;
50757;SDS011;36732;47.980;11.652;2023-04-25T08:37:08;1.38;;;1.10;;
50757;SDS011;36732;47.980;11.652;2023-04-25T08:39:35;1.83;;;1.25;;
50757;SDS011;36732;47.980;11.652;2023-04-25T08:42:06;1.88;;;1.20;;
50757;SDS011;36732;47.980;11.652;2023-04-25T08:44:35;2.50;;;1.38;;
50757;SDS011;36732;47.980;11.652;2023-04-25T08:47:05;3.33;;;1.38;;
50757;SDS011;36732;47.980;11.652;2023-04-25T08:49:31;1.27;;;1.02;;
50757;SDS011;36732;47.980;11.652;2023-04-25T08:52:03;1.90;;;1.10;;
50757;SDS011;36732;47.980;11.652;2023-04-25T08:54:31;1.40;;;1.20;;
50757;SDS011;36732;47.980;11.652;2023-04-25T08:56:59;2.50;;;1.50;;
50757;SDS011;36732;47.980;11.652;2023-04-25T08:59:29;1.80;;;1.35;;
50757;SDS011;36732;47.980;11.652;2023-04-25T09:01:56;1.20;;;1.10;;
50757;SDS011;36732;47.980;11.652;2023-04-25T09:04:22;1.20;;;0.93;;
50757;SDS011;36732;47.980;11.652;2023-04-25T09:06:48;2.63;;;1.05;;
50757;SDS011;36732;47.980;11.652;2023-04-25T09:09:14;1.98;;;1.13;;
50757;SDS011;36732;47.980;11.652;2023-04-25T09:11:39;4.15;;;1.10;;
50757;SDS011;36732;47.980;11.652;2023-04-25T09:14:24;1.58;;;1.20;;
50757;SDS011;36732;47.980;11.652;2023-04-25T09:19:23;3.17;;;1.10;;
50757;SDS011;36732;47.980;11.652;2023-04-25T09:21:55;1.17;;;1.08;;
50757;SDS011;36732;47.980;11.652;2023-04-25T09:24:33;1.67;;;1.30;;
50757;SDS011;36732;47.980;11.652;2023-04-25T09:27:07;2.00;;;1.45;;
50757;SDS011;36732;47.980;11.652;2023-04-25T09:29:41;2.03;;;1.35;;
50757;SDS011;36732;47.980;11.652;2023-04-25T09:32:17;4.28;;;1.63;;
50757;SDS011;36732;47.980;11.652;2023-04-25T09:34:46;2.70;;;1.20;;
50757;SDS011;36732;47.980;11.652;2023-04-25T09:37:17;1.42;;;1.10;;
50757;SDS011;36732;47.980;11.652;2023-04-25T09:39:44;2.65;;;1.30;;
50757;SDS011;36732;47.980;11.652;2023-04-25T09:42:11;1.40;;;1.30;;
50757;SDS011;36732;47.980;11.652;2023-04-25T09:44:41;1.92;;;1.40;;
50757;SDS011;36732;47.980;11.652;2023-04-25T09:47:10;3.33;;;1.25;;
50757;SDS011;36732;47.980;11.652;2023-04-25T09:49:41;2.60;;;1.48;;
50757;SDS011;36732;47.980;11.652;2023-04-25T09:52:09;2.22;;;1.30;;
50757;SDS011;36732;47.980;11.652;2023-04-25T09:54:39;1.73;;;1.33;;
50757;SDS011;36732;47.980;11.652;2023-04-25T09:57:12;2.55;;;1.27;;
50757;SDS011;36732;47.980;11.652;2023-04-25T09:59:49;3.55;;;1.60;;
50757;SDS011;36732;47.980;11.652;2023-04-25T10:02:18;2.42;;;1.50;;
50757;SDS011;36732;47.980;11.652;2023-04-25T10:04:47;4.13;;;1.88;;
50757;SDS011;36732;47.980;11.652;2023-04-25T10:07:17;1.70;;;1.40;;
50757;SDS011;36732;47.980;11.652;2023-04-25T10:09:45;2.65;;;1.33;;
50757;SDS011;36732;47.980;11.652;2023-04-25T10:12:17;3.88;;;1.25;;
50757;SDS011;36732;47.980;11.652;2023-04-25T10:14:43;1.73;;;1.30;;
50757;SDS011;36732;47.980;11.652;2023-04-25T10:17:10;1.60;;;1.10;;
50757;SDS011;36732;47.980;11.652;2023-04-25T10:19:38;2.13;;;1.10;;
50757;SDS011;36732;47.980;11.652;2023-04-25T10:22:08;1.40;;;1.10;;
50757;SDS011;36732;47.980;11.652;2023-04-25T10:24:42;1.10;;;0.90;;
50757;SDS011;36732;47.980;11.652;2023-04-25T10:27:09;2.03;;;1.20;;
50757;SDS011;36732;47.980;11.652;2023-04-25T10:29:35;2.88;;;1.08;;
50757;SDS011;36732;47.980;11.652;2023-04-25T10:32:01;1.25;;;0.88;;
50757;SDS011;36732;47.980;11.652;2023-04-25T10:34:40;2.22;;;1.27;;
50757;SDS011;36732;47.980;11.652;2023-04-25T10:37:09;1.73;;;1.10;;
50757;SDS011;36732;47.980;11.652;2023-04-25T10:39:36;2.15;;;1.00;;
50757;SDS011;36732;47.980;11.652;2023-04-25T10:42:05;1.98;;;1.10;;
50757;SDS011;36732;47.980;11.652;2023-04-25T10:44:32;0.95;;;0.77;;
50757;SDS011;36732;47.980;11.652;2023-04-25T10:46:59;1.50;;;1.17;;
50757;SDS011;36732;47.980;11.652;2023-04-25T10:49:28;3.10;;;0.95;;
50757;SDS011;36732;47.980;11.652;2023-04-25T10:52:15;5.18;;;1.52;;
50757;SDS011;36732;47.980;11.652;2023-04-25T10:57:40;1.48;;;1.27;;
50757;SDS011;36732;47.980;11.652;2023-04-25T11:00:19;3.55;;;1.50;;
50757;SDS011;36732;47.980;11.652;2023-04-25T11:02:51;1.63;;;1.13;;
50757;SDS011;36732;47.980;11.652;2023-04-25T11:05:22;3.45;;;1.20;;
50757;SDS011;36732;47.980;11.652;2023-04-25T11:08:11;1.15;;;0.90;;
50757;SDS011;36732;47.980;11.652;2023-04-25T11:10:39;1.20;;;0.80;;
50757;SDS011;36732;47.980;11.652;2023-04-25T11:13:05;1.27;;;1.02;;
50757;SDS011;36732;47.980;11.652;2023-04-25T11:15:31;1.50;;;1.17;;
50757;SDS011;36732;47.980;11.652;2023-04-25T11:17:56;1.50;;;1.20;;
50757;SDS011;36732;47.980;11.652;2023-04-25T11:20:25;2.22;;;1.15;;
50757;SDS011;36732;47.980;11.652;2023-04-25T11:22:53;2.03;;;1.05;;
50757;SDS011;36732;47.980;11.652;2023-04-25T11:25:18;1.35;;;1.10;;
50757;SDS011;36732;47.980;11.652;2023-04-25T11:27:54;1.08;;;0.90;;
50757;SDS011;36732;47.980;11.652;2023-04-25T11:30:24;1.45;;;1.02;;
50757;SDS011;36732;47.980;11.652;2023-04-25T11:32:51;1.10;;;1.00;;
50757;SDS011;36732;47.980;11.652;2023-04-25T11:35:18;1.67;;;1.15;;
50757;SDS011;36732;47.980;11.652;2023-04-25T11:37:45;5.00;;;1.30;;
50757;SDS011;36732;47.980;11.652;2023-04-25T11:40:11;1.73;;;1.20;;
50757;SDS011;36732;47.980;11.652;2023-04-25T11:42:43;1.40;;;0.98;;
50757;SDS011;36732;47.980;11.652;2023-04-25T11:45:11;2.92;;;1.00;;
50757;SDS011;36732;47.980;11.652;2023-04-25T11:47:38;2.00;;;1.17;;
50757;SDS011;36732;47.980;11.652;2023-04-25T11:50:04;1.98;;;1.23;;
50757;SDS011;36732;47.980;11.652;2023-04-25T11:55:07;0.98;;;0.80;;
50757;SDS011;36732;47.980;11.652;2023-04-25T11:57:42;1.95;;;1.33;;
50757;SDS011;36732;47.980;11.652;2023-04-25T12:00:13;2.72;;;1.00;;
50757;SDS011;36732;47.980;11.652;2023-04-25T12:02:42;1.50;;;1.00;;
50757;SDS011;36732;47.980;11.652;2023-04-25T12:05:11;1.25;;;1.00;;
50757;SDS011;36732;47.980;11.652;2023-04-25T12:07:39;1.83;;;0.93;;
50757;SDS011;36732;47.980;11.652;2023-04-25T12:12:36;3.00;;;1.45;;
50757;SDS011;36732;47.980;11.652;2023-04-25T12:15:13;1.40;;;0.90;;
50757;SDS011;36732;47.980;11.652;2023-04-25T12:17:41;1.13;;;0.80;;
50757;SDS011;36732;47.980;11.652;2023-04-25T12:20:10;0.88;;;0.85;;
50757;SDS011;36732;47.980;11.652;2023-04-25T12:22:40;0.75;;;0.70;;
50757;SDS011;36732;47.980;11.652;2023-04-25T12:25:11;0.70;;;0.70;;
50757;SDS011;36732;47.980;11.652;2023-04-25T12:27:38;1.95;;;0.70;;
50757;SDS011;36732;47.980;11.652;2023-04-25T12:30:08;1.40;;;0.70;;
50757;SDS011;36732;47.980;11.652;2023-04-25T12:32:35;1.10;;;0.77;;
50757;SDS011;36732;47.980;11.652;2023-04-25T12:35:02;0.93;;;0.93;;
50757;SDS011;36732;47.980;11.652;2023-04-25T12:37:31;1.20;;;0.73;;
50757;SDS011;36732;47.980;11.652;2023-04-25T12:39:57;0.85;;;0.60;;
50757;SDS011;36732;47.980;11.652;2023-04-25T12:42:22;1.20;;;0.98;;
50757;SDS011;36732;47.980;11.652;2023-04-25T12:44:48;0.57;;;0.57;;
50757;SDS011;36732;47.980;11.652;2023-04-25T12:47:14;0.70;;;0.70;;
50757;SDS011;36732;47.980;11.652;2023-04-25T12:49:40;1.15;;;0.57;;
50757;SDS011;36732;47.980;11.652;2023-04-25T12:52:06;0.88;;;0.60;;
50757;SDS011;36732;47.980;11.652;2023-04-25T12:54:31;1.10;;;0.52;;
50757;SDS011;36732;47.980;11.652;2023-04-25T12:56:57;0.75;;;0.57;;
50757;SDS011;36732;47.980;11.652;2023-04-25T12:59:24;3.00;;;0.80;;
50757;SDS011;36732;47.980;11.652;2023-04-25T13:01:49;2.60;;;0.57;;
50757;SDS011;36732;47.980;11.652;2023-04-25T13:04:15;0.43;;;0.40;;
50757;SDS011;36732;47.980;11.652;2023-04-25T13:06:41;0.30;;;0.30;;
50757;SDS011;36732;47.980;11.652;2023-04-25T13:09:06;0.85;;;0.40;;
50757;SDS011;36732;47.980;11.652;2023-04-25T13:11:32;0.25;;;0.25;;
50757;SDS011;36732;47.980;11.652;2023-04-25T13:13:58;0.65;;;0.43;;
50757;SDS011;36732;47.980;11.652;2023-04-25T13:16:23;0.47;;;0.30;;
50757;SDS011;36732;47.980;11.652;2023-04-25T13:18:49;0.25;;;0.25;;
50757;SDS011;36732;47.980;11.652;2023-04-25T13:21:15;0.35;;;0.35;;
50757;SDS011;36732;47.980;11.652;2023-04-25T13:23:40;0.30;;;0.30;;
50757;SDS011;36732;47.980;11.652;2023-04-25T13:26:08;0.20;;;0.20;;
50757;SDS011;36732;47.980;11.652;2023-04-25T13:28:33;0.20;;;0.20;;
50757;SDS011;36732;47.980;11.652;2023-04-25T13:30:59;0.45;;;0.32;;
50757;SDS011;36732;47.980;11.652;2023-04-25T13:33:25;0.40;;;0.40;;
50757;SDS011;36732;47.980;11.652;2023-04-25T13:35:51;1.05;;;0.40;;
50757;SDS011;36732;47.980;11.652;2023-04-25T13:38:21;0.32;;;0.30;;
50757;SDS011;36732;47.980;11.652;2023-04-25T13:40:49;0.68;;;0.60;;
50757;SDS011;36732;47.980;11.652;2023-04-25T13:43:17;0.30;;;0.30;;
50757;SDS011;36732;47.980;11.652;2023-04-25T13:45:47;1.55;;;0.32;;
50757;SDS011;36732;47.980;11.652;2023-04-25T13:48:13;1.27;;;0.30;;
50757;SDS011;36732;47.980;11.652;2023-04-25T13:50:39;0.20;;;0.20;;
50757;SDS011;36732;47.980;11.652;2023-04-25T13:53:05;0.32;;;0.32;;
50757;SDS011;36732;47.980;11.652;2023-04-25T13:55:30;0.52;;;0.40;;
50757;SDS011;36732;47.980;11.652;2023-04-25T13:57:56;0.50;;;0.30;;
50757;SDS011;36732;47.980;11.652;2023-04-25T14:00:22;0.90;;;0.30;;
50757;SDS011;36732;47.980;11.652;2023-04-25T14:02:48;0.80;;;0.40;;
50757;SDS011;36732;47.980;11.652;2023-04-25T14:05:14;0.40;;;0.40;;
50757;SDS011;36732;47.980;11.652;2023-04-25T14:07:40;0.50;;;0.32;;
50757;SDS011;36732;47.980;11.652;2023-04-25T14:10:06;0.60;;;0.40;;
50757;SDS011;36732;47.980;11.652;2023-04-25T14:12:32;0.50;;;0.50;;
50757;SDS011;36732;47.980;11.652;2023-04-25T14:14:58;0.55;;;0.30;;
50757;SDS011;36732;47.980;11.652;2023-04-25T14:17:23;0.93;;;0.40;;
50757;SDS011;36732;47.980;11.652;2023-04-25T14:19:49;0.50;;;0.32;;
50757;SDS011;36732;47.980;11.652;2023-04-25T14:22:15;0.30;;;0.30;;
50757;SDS011;36732;47.980;11.652;2023-04-25T14:24:41;0.55;;;0.40;;
50757;SDS011;36732;47.980;11.652;2023-04-25T14:27:07;0.35;;;0.35;;
50757;SDS011;36732;47.980;11.652;2023-04-25T14:29:33;1.02;;;0.40;;
50757;SDS011;36732;47.980;11.652;2023-04-25T14:31:59;0.75;;;0.40;;
50757;SDS011;36732;47.980;11.652;2023-04-25T14:34:25;0.82;;;0.70;;
50757;SDS011;36732;47.980;11.652;2023-04-25T14:36:51;0.40;;;0.40;;
50757;SDS011;36732;47.980;11.652;2023-04-25T14:39:17;0.40;;;0.40;;
50757;SDS011;36732;47.980;11.652;2023-04-25T14:41:43;1.27;;;0.45;;
50757;SDS011;36732;47.980;11.652;2023-04-25T14:44:09;0.30;;;0.30;;
50757;SDS011;36732;47.980;11.652;2023-04-25T14:46:35;0.43;;;0.43;;
50757;SDS011;36732;47.980;11.652;2023-04-25T14:49:02;0.40;;;0.40;;